sensor_id;sensor_type;location;lat;lon;timestamp;P1;durP1;ratioP1;P2;durP2;ratioP2
3999;SDS011;2014;53.604;10.112;2022-07-21T19:43:05;13.57;;;9.83;;
3999;SDS011;2014;53.604;10.112;2022-07-21T19:45:33;10.83;;;9.67;;
3999;SDS011;2014;53.604;10.112;2022-07-21T19:48:00;12.57;;;10.20;;
3999;SDS011;2014;53.604;10.112;2022-07-21T19:50:28;11.20;;;10.37;;
3999;SDS011;2014;53.604;10.112;2022-07-21T19:52:55;12.60;;;11.33;;
3999;SDS011;2014;53.604;10.112;2022-07-21T19:55:22;10.97;;;10.20;;
3999;SDS011;2014;53.604;10.112;2022-07-21T19:57:50;10.73;;;9.70;;
3999;SDS011;2014;53.604;10.112;2022-07-21T20:00:19;12.07;;;10.90;;
3999;SDS011;2014;53.604;10.112;2022-07-21T20:02:49;13.37;;;9.90;;
3999;SDS011;2014;53.604;10.112;2022-07-21T20:05:16;10.90;;;10.07;;
3999;SDS011;2014;53.604;10.112;2022-07-21T20:07:44;13.47;;;12.33;;
3999;SDS011;2014;53.604;10.112;2022-07-21T20:10:11;11.80;;;10.70;;
3999;SDS011;2014;53.604;10.112;2022-07-21T20:12:39;13.17;;;12.00;;
3999;SDS011;2014;53.604;10.112;2022-07-21T20:15:06;12.00;;;11.10;;
3999;SDS011;2014;53.604;10.112;2022-07-21T20:17:35;13.40;;;12.03;;
3999;SDS011;2014;53.604;10.112;2022-07-21T20:20:03;14.77;;;12.97;;
3999;SDS011;2014;53.604;10.112;2022-07-21T20:22:31;13.97;;;12.10;;
3999;SDS011;2014;53.604;10.112;2022-07-21T20:24:58;14.77;;;13.20;;
3999;SDS011;2014;53.604;10.112;2022-07-21T20:27:26;14.30;;;12.90;;
3999;SDS011;2014;53.604;10.112;2022-07-21T20:29:53;13.93;;;12.73;;
3999;SDS011;2014;53.604;10.112;2022-07-21T20:32:20;14.50;;;13.07;;
3999;SDS011;2014;53.604;10.112;2022-07-21T20:34:49;14.77;;;13.47;;
3999;SDS011;2014;53.604;10.112;2022-07-21T20:37:16;15.93;;;12.33;;
3999;SDS011;2014;53.604;10.112;2022-07-21T20:39:44;15.17;;;13.67;;
3999;SDS011;2014;53.604;10.112;2022-07-21T20:42:11;13.43;;;12.43;;
3999;SDS011;2014;53.604;10.112;2022-07-21T20:44:38;15.37;;;14.03;;
3999;SDS011;2014;53.604;10.112;2022-07-21T20:47:06;15.10;;;13.80;;
3999;SDS011;2014;53.604;10.112;2022-07-21T20:49:33;14.30;;;13.00;;
3999;SDS011;2014;53.604;10.112;2022-07-21T20:52:02;13.77;;;12.57;;
3999;SDS011;2014;53.604;10.112;2022-07-21T20:54:29;14.87;;;13.30;;
3999;SDS011;2014;53.604;10.112;2022-07-21T20:56:56;14.00;;;12.67;;
3999;SDS011;2014;53.604;10.112;2022-07-21T20:59:23;14.33;;;12.93;;
3999;SDS011;2014;53.604;10.112;2022-07-21T21:01:51;14.10;;;13.00;;
3999;SDS011;2014;53.604;10.112;2022-07-21T21:04:18;13.17;;;12.03;;
3999;SDS011;2014;53.604;10.112;2022-07-21T21:06:46;13.93;;;12.83;;
3999;SDS011;2014;53.604;10.112;2022-07-21T21:09:14;13.50;;;12.30;;
3999;SDS011;2014;53.604;10.112;2022-07-21T21:11:42;14.70;;;13.33;;
3999;SDS011;2014;53.604;10.112;2022-07-21T21:14:09;14.20;;;12.93;;
3999;SDS011;2014;53.604;10.112;2022-07-21T21:16:36;15.03;;;13.53;;
3999;SDS011;2014;53.604;10.112;2022-07-21T21:19:04;14.03;;;12.77;;
3999;SDS011;2014;53.604;10.112;2022-07-21T21:21:31;12.40;;;11.43;;
3999;SDS011;2014;53.604;10.112;2022-07-21T21:23:59;13.83;;;12.77;;
3999;SDS011;2014;53.604;10.112;2022-07-21T21:26:28;15.40;;;14.03;;
3999;SDS011;2014;53.604;10.112;2022-07-21T21:28:55;14.73;;;13.20;;
3999;SDS011;2014;53.604;10.112;2022-07-21T21:31:23;14.40;;;13.20;;
3999;SDS011;2014;53.604;10.112;2022-07-21T21:33:50;13.53;;;12.23;;
3999;SDS011;2014;53.604;10.112;2022-07-21T21:36:17;15.40;;;13.83;;
3999;SDS011;2014;53.604;10.112;2022-07-21T21:38:45;15.97;;;13.83;;
3999;SDS011;2014;53.604;10.112;2022-07-21T21:41:12;15.27;;;13.77;;
3999;SDS011;2014;53.604;10.112;2022-07-21T21:43:41;14.37;;;13.17;;
3999;SDS011;2014;53.604;10.112;2022-07-21T21:46:08;16.10;;;14.70;;
3999;SDS011;2014;53.604;10.112;2022-07-21T21:48:36;16.73;;;15.00;;
3999;SDS011;2014;53.604;10.112;2022-07-21T21:51:04;14.03;;;12.83;;
3999;SDS011;2014;53.604;10.112;2022-07-21T21:53:33;12.30;;;11.30;;
3999;SDS011;2014;53.604;10.112;2022-07-21T21:56:01;13.63;;;12.53;;
3999;SDS011;2014;53.604;10.112;2022-07-21T21:58:28;15.03;;;13.47;;
3999;SDS011;2014;53.604;10.112;2022-07-21T22:00:57;14.10;;;12.80;;
3999;SDS011;2014;53.604;10.112;2022-07-21T22:03:24;14.60;;;13.10;;
3999;SDS011;2014;53.604;10.112;2022-07-21T22:05:52;13.00;;;11.77;;
3999;SDS011;2014;53.604;10.112;2022-07-21T22:08:19;15.10;;;12.90;;
3999;SDS011;2014;53.604;10.112;2022-07-21T22:10:46;14.87;;;13.30;;
3999;SDS011;2014;53.604;10.112;2022-07-21T22:13:14;14.67;;;13.27;;
3999;SDS011;2014;53.604;10.112;2022-07-21T22:15:41;14.70;;;13.33;;
3999;SDS011;2014;53.604;10.112;2022-07-21T22:18:10;14.60;;;13.10;;
3999;SDS011;2014;53.604;10.112;2022-07-21T22:20:38;13.93;;;12.73;;
3999;SDS011;2014;53.604;10.112;2022-07-21T22:23:05;13.80;;;12.30;;
3999;SDS011;2014;53.604;10.112;2022-07-21T22:25:32;15.97;;;14.07;;
3999;SDS011;2014;53.604;10.112;2022-07-21T22:28:00;14.60;;;13.30;;
3999;SDS011;2014;53.604;10.112;2022-07-21T22:30:27;15.57;;;14.17;;
3999;SDS011;2014;53.604;10.112;2022-07-21T22:32:54;15.93;;;14.10;;
3999;SDS011;2014;53.604;10.112;2022-07-21T22:35:23;16.43;;;14.60;;
3999;SDS011;2014;53.604;10.112;2022-07-21T22:37:51;17.23;;;15.47;;
3999;SDS011;2014;53.604;10.112;2022-07-21T22:40:18;15.60;;;14.00;;
3999;SDS011;2014;53.604;10.112;2022-07-21T22:42:45;17.63;;;15.90;;
3999;SDS011;2014;53.604;10.112;2022-07-21T22:45:13;16.40;;;14.70;;
3999;SDS011;2014;53.604;10.112;2022-07-21T22:47:40;19.30;;;16.07;;
3999;SDS011;2014;53.604;10.112;2022-07-21T22:50:07;18.47;;;16.30;;
3999;SDS011;2014;53.604;10.112;2022-07-21T22:52:36;18.17;;;16.37;;
3999;SDS011;2014;53.604;10.112;2022-07-21T22:55:04;17.37;;;15.67;;
3999;SDS011;2014;53.604;10.112;2022-07-21T22:57:32;16.63;;;14.97;;
3999;SDS011;2014;53.604;10.112;2022-07-21T22:59:59;18.10;;;16.10;;
3999;SDS011;2014;53.604;10.112;2022-07-21T23:02:27;18.30;;;14.70;;
3999;SDS011;2014;53.604;10.112;2022-07-21T23:04:54;18.30;;;15.57;;
3999;SDS011;2014;53.604;10.112;2022-07-21T23:07:21;19.30;;;15.63;;
3999;SDS011;2014;53.604;10.112;2022-07-21T23:09:50;17.10;;;15.30;;
3999;SDS011;2014;53.604;10.112;2022-07-21T23:12:17;18.33;;;16.63;;
3999;SDS011;2014;53.604;10.112;2022-07-21T23:14:45;17.87;;;16.07;;
3999;SDS011;2014;53.604;10.112;2022-07-21T23:17:12;18.70;;;16.90;;
3999;SDS011;2014;53.604;10.112;2022-07-21T23:19:39;19.97;;;16.30;;
3999;SDS011;2014;53.604;10.112;2022-07-21T23:22:07;19.23;;;16.60;;
3999;SDS011;2014;53.604;10.112;2022-07-21T23:24:34;20.67;;;17.27;;
3999;SDS011;2014;53.604;10.112;2022-07-21T23:27:03;20.17;;;17.97;;
3999;SDS011;2014;53.604;10.112;2022-07-21T23:29:30;18.00;;;16.13;;
3999;SDS011;2014;53.604;10.112;2022-07-21T23:31:58;19.30;;;16.43;;
3999;SDS011;2014;53.604;10.112;2022-07-21T23:34:25;19.00;;;17.10;;
3999;SDS011;2014;53.604;10.112;2022-07-21T23:36:53;18.57;;;16.70;;
3999;SDS011;2014;53.604;10.112;2022-07-21T23:39:20;17.73;;;16.13;;
3999;SDS011;2014;53.604;10.112;2022-07-21T23:41:47;20.43;;;18.37;;
3999;SDS011;2014;53.604;10.112;2022-07-21T23:44:16;19.63;;;17.73;;
3999;SDS011;2014;53.604;10.112;2022-07-21T23:46:43;24.33;;;20.07;;
3999;SDS011;2014;53.604;10.112;2022-07-21T23:49:10;23.10;;;20.23;;
3999;SDS011;2014;53.604;10.112;2022-07-21T23:51:40;22.03;;;19.13;;
3999;SDS011;2014;53.604;10.112;2022-07-21T23:54:07;21.83;;;19.40;;
3999;SDS011;2014;53.604;10.112;2022-07-21T23:56:35;22.90;;;20.20;;
3999;SDS011;2014;53.604;10.112;2022-07-21T23:59:02;23.07;;;20.57;;
